< < Back
Terminal Aerodrome Forecast


Current Version              Previous Versions:   1  2  3  4  5  6  7  8  9  

Terminal Aerodrome Forecast

761
FTUS42 KFFC 230300 AAA
TAFPDK
TAF AMD
KPDK 230332Z 2304/2324 33003KT P6SM SKC
     FM231600 32005KT P6SM SKC=



Latest METAR

205
SAUS70 KWBC 232200 RRP
MTRPDK
METAR KPDK 232153Z 32007KT 10SM CLR 18/06 A3003 RMK AO2 SLP170
T01780056


USA.gov is the U.S. government's official web portal to all federal, state and local government web resources and services.